Portada
METAR-TAF:

METAR-TAF

Aeroports :

Zhengzhou, Xina

latitud: 34-43N, longitud: 113-39E, altitud: 111 m

Observació

L'informe es va fer fa 57 minuts, a les 08:00 UTC
Vent 6 kt del Nord, variant entre Nord-Oest i Nord/Nord-Est
Temperatura 12°C
Humitat 62%
Pressió 1024 hPa
Visibilitat: 4000 m
Cel cobert a una alçada de 2600 ft
calitja

METAR: ZHCC 020800Z 35003MPS 320V020 4000 HZ OVC026 12/05 Q1024 NOSIG

Hora: 16:57 (08:57 UTC)

Pronòstic

L'informe es va fer fa 5 hores i 48 minuts, a les 03:09 UTC
Pronòstic vàlid del 02 a les 06 UTC al 03 a les 06 UTC
Vent 6 kt del Nord
Visibilitat: 4000 m
Cel cobert a una alçada de 3000 ft
calitja

TAF: ZHCC 020309Z 0206/0306 36003MPS 4000 HZ OVC030 TX13/0207Z TN06/0222Z

Observacions i pronòstics meteorològics de més de 4000 aeroports (METAR i TAF).

Les estacions disponibles són els punts grocs i vermells al mapa.

Posi el ratolí al punt desitjat per veure el nom de l'estació.

Feu clic per veure les observacions i els pronòstics meteorològics.

Per canviar el mapa: feu clic els botons verds amb una creu de color negre per apropar; al botó verd amb un guió per allunyar la imatge; o en les fletxes verdes per a mapes adjacents.


METAR-TAF: